createdAt,value
2022-12-08T00:01:12.318Z,1.18
2022-12-08T00:04:14.150Z,1.18
2022-12-08T00:07:34.188Z,1.18
2022-12-08T00:10:51.085Z,1.20
2022-12-08T00:13:52.603Z,1.19
2022-12-08T00:16:54.988Z,1.20
2022-12-08T00:19:56.607Z,1.21
2022-12-08T00:22:58.107Z,1.21
2022-12-08T00:26:06.934Z,1.19
2022-12-08T00:29:13.082Z,1.20
2022-12-08T00:32:17.472Z,1.21
2022-12-08T00:35:19.037Z,1.22
2022-12-08T00:38:20.558Z,1.18
2022-12-08T00:41:43.850Z,1.21
2022-12-08T00:44:46.127Z,1.21
2022-12-08T00:47:47.626Z,1.20
2022-12-08T00:50:49.150Z,1.16
2022-12-08T00:53:50.713Z,1.21
2022-12-08T00:56:52.438Z,1.21
2022-12-08T00:59:53.933Z,1.22
2022-12-08T01:02:55.485Z,1.14
2022-12-08T01:05:57.137Z,1.23
2022-12-08T01:08:58.907Z,1.25
2022-12-08T01:12:00.475Z,1.23
2022-12-08T01:15:02.686Z,1.24
2022-12-08T01:18:04.577Z,1.22
2022-12-08T01:21:07.591Z,1.21
2022-12-08T01:24:20.871Z,1.22
2022-12-08T01:27:22.420Z,1.14
2022-12-08T01:30:23.936Z,1.23
2022-12-08T01:33:25.897Z,1.22
2022-12-08T01:36:29.945Z,1.21
2022-12-08T01:39:31.456Z,1.20
2022-12-08T01:42:34.493Z,1.23
2022-12-08T01:45:36.065Z,1.24
2022-12-08T01:48:37.771Z,1.25
2022-12-08T01:51:47.388Z,1.24
2022-12-08T01:54:53.692Z,1.24
2022-12-08T01:58:05.962Z,1.24
2022-12-08T02:01:08.105Z,1.23
2022-12-08T02:04:10.241Z,1.22
2022-12-08T02:07:13.593Z,1.23
2022-12-08T02:10:19.455Z,1.22
2022-12-08T02:13:22.425Z,1.22
2022-12-08T02:16:37.323Z,1.20
2022-12-08T02:20:22.930Z,1.20
2022-12-08T02:23:37.198Z,1.18
2022-12-08T02:26:53.812Z,1.18
2022-12-08T02:30:16.228Z,1.19
2022-12-08T02:33:26.580Z,1.18
2022-12-08T02:36:58.682Z,1.16
2022-12-08T02:40:14.277Z,1.08
2022-12-08T02:43:26.942Z,1.15
2022-12-08T02:46:33.807Z,1.15
2022-12-08T02:49:35.632Z,1.14
2022-12-08T02:52:48.296Z,1.14
2022-12-08T02:56:16.149Z,1.12
2022-12-08T02:59:48.086Z,1.11
2022-12-08T03:03:15.365Z,1.10
2022-12-08T03:06:29.582Z,1.10
2022-12-08T03:09:36.434Z,1.10
2022-12-08T03:12:43.636Z,1.09
2022-12-08T03:15:49.081Z,1.07
2022-12-08T03:19:24.583Z,1.08
2022-12-08T03:22:27.676Z,1.08
2022-12-08T03:25:33.856Z,1.05
2022-12-08T03:28:35.589Z,1.05
2022-12-08T03:31:41.776Z,1.05
2022-12-08T03:34:47.071Z,1.07
2022-12-08T03:37:48.800Z,1.06
2022-12-08T03:41:10.680Z,1.03
2022-12-08T03:44:12.213Z,1.03
2022-12-08T03:47:13.803Z,1.05
2022-12-08T03:50:15.435Z,1.05
2022-12-08T03:54:21.059Z,1.05
2022-12-08T03:57:22.657Z,1.05
2022-12-08T04:00:24.199Z,1.03
2022-12-08T04:03:25.915Z,1.03
2022-12-08T04:06:27.483Z,1.02
2022-12-08T04:09:29.055Z,1.00
2022-12-08T04:12:31.289Z,1.00
2022-12-08T04:15:32.855Z,1.03
2022-12-08T04:18:35.480Z,1.03
2022-12-08T04:21:37.007Z,1.01
2022-12-08T04:24:38.521Z,1.04
2022-12-08T04:27:40.051Z,1.03
2022-12-08T04:30:41.711Z,1.03
2022-12-08T04:33:43.285Z,1.03
2022-12-08T04:36:44.810Z,1.02
2022-12-08T04:39:46.295Z,1.03
2022-12-08T04:42:48.061Z,1.00
2022-12-08T04:45:49.663Z,1.00
2022-12-08T04:48:51.176Z,0.96
2022-12-08T04:51:52.692Z,0.96
2022-12-08T04:54:54.223Z,0.96
2022-12-08T04:57:56.116Z,0.96
2022-12-08T05:00:57.708Z,0.92
2022-12-08T05:03:59.279Z,0.89
2022-12-08T05:07:00.862Z,0.87
2022-12-08T05:10:03.205Z,0.84
2022-12-08T05:13:05.202Z,0.82
2022-12-08T05:16:13.416Z,0.78
2022-12-08T05:19:15.804Z,0.76
2022-12-08T05:22:17.396Z,0.71
2022-12-08T05:25:18.962Z,0.69
2022-12-08T05:28:40.760Z,0.66
2022-12-08T05:31:42.156Z,0.63
2022-12-08T05:34:43.684Z,0.60
2022-12-08T05:37:45.196Z,0.52
2022-12-08T05:40:46.785Z,0.51
2022-12-08T05:43:48.950Z,0.45
2022-12-08T05:46:50.629Z,0.37
2022-12-08T05:49:52.186Z,0.35
2022-12-08T05:52:53.764Z,0.29
2022-12-08T05:55:55.432Z,0.26
2022-12-08T05:58:57.015Z,0.13
2022-12-08T06:01:58.774Z,0.14
2022-12-08T06:05:00.400Z,0.08
2022-12-08T06:08:02.048Z,0.04
2022-12-08T06:11:03.672Z,0.01
2022-12-08T06:14:05.396Z,-0.03
2022-12-08T06:17:07.282Z,-0.09
2022-12-08T06:20:09.528Z,-0.13
2022-12-08T06:23:11.064Z,-0.11
2022-12-08T06:26:15.042Z,-0.13
2022-12-08T06:29:16.591Z,-0.14
2022-12-08T06:32:20.795Z,-0.23
2022-12-08T06:35:25.996Z,-0.20
2022-12-08T06:38:28.110Z,-0.21
2022-12-08T06:41:29.726Z,-0.24
2022-12-08T06:44:31.239Z,-0.23
2022-12-08T06:47:32.765Z,-0.22
2022-12-08T06:50:35.027Z,-0.23
2022-12-08T06:53:36.951Z,-0.22
2022-12-08T06:56:38.497Z,-0.22
2022-12-08T06:59:40.054Z,-0.21
2022-12-08T07:02:42.281Z,-0.19
2022-12-08T07:05:43.860Z,-0.17
2022-12-08T07:08:45.409Z,-0.18
2022-12-08T07:11:46.947Z,-0.15
2022-12-08T07:14:48.448Z,-0.15
2022-12-08T07:17:53.567Z,-0.15
2022-12-08T07:21:03.509Z,-0.11
2022-12-08T07:24:05.473Z,-0.11
2022-12-08T07:27:07.102Z,-0.08
2022-12-08T07:30:09.023Z,-0.05
2022-12-08T07:33:10.551Z,-0.01
2022-12-08T07:36:12.621Z,0.04
2022-12-08T07:39:14.143Z,0.04
2022-12-08T07:42:15.798Z,0.11
2022-12-08T07:45:21.288Z,0.15
2022-12-08T07:48:22.812Z,0.19
2022-12-08T07:51:25.195Z,0.20
2022-12-08T07:54:27.713Z,0.25
2022-12-08T07:57:29.264Z,0.26
2022-12-08T08:00:30.877Z,0.31
2022-12-08T08:03:33.182Z,0.33
2022-12-08T08:06:36.296Z,0.39
2022-12-08T08:09:38.017Z,0.42
2022-12-08T08:12:39.656Z,0.46
2022-12-08T08:15:41.372Z,0.52
2022-12-08T08:18:43.570Z,0.52
2022-12-08T08:21:46.342Z,0.55
2022-12-08T08:24:48.252Z,0.60
2022-12-08T08:27:50.303Z,0.65
2022-12-08T08:30:52.054Z,0.67
2022-12-08T08:33:54.013Z,0.74
2022-12-08T08:36:55.598Z,0.79
2022-12-08T08:39:57.174Z,0.82
2022-12-08T08:43:01.458Z,0.89
2022-12-08T08:46:04.590Z,0.86
2022-12-08T08:49:06.165Z,1.02
2022-12-08T08:52:07.944Z,1.04
2022-12-08T08:55:09.857Z,1.06
2022-12-08T08:58:11.459Z,1.10
2022-12-08T09:01:21.370Z,1.14
2022-12-08T09:04:23.717Z,1.15
2022-12-08T09:07:25.289Z,1.16
2022-12-08T09:10:27.340Z,1.16
2022-12-08T09:13:28.895Z,1.20
2022-12-08T09:16:30.538Z,1.22
2022-12-08T09:19:32.659Z,1.25
2022-12-08T09:22:34.482Z,1.23
2022-12-08T09:25:36.012Z,1.27
2022-12-08T09:28:38.063Z,1.28
2022-12-08T09:31:39.993Z,1.30
2022-12-08T09:34:41.653Z,1.32
2022-12-08T09:37:43.180Z,1.32
2022-12-08T09:40:50.943Z,1.38
2022-12-08T09:44:18.880Z,1.39
2022-12-08T09:47:29.391Z,1.41
2022-12-08T09:50:55.776Z,1.45
2022-12-08T09:54:07.832Z,1.47
2022-12-08T09:57:17.488Z,1.48
2022-12-08T10:00:19.162Z,1.52
2022-12-08T10:03:24.314Z,1.50
2022-12-08T10:06:41.303Z,1.53
2022-12-08T10:09:49.960Z,1.56
2022-12-08T10:13:14.168Z,1.58
2022-12-08T10:16:29.312Z,1.61
2022-12-08T10:19:34.194Z,1.63
2022-12-08T10:22:39.947Z,1.67
2022-12-08T10:25:48.741Z,1.65
2022-12-08T10:28:50.684Z,1.68
2022-12-08T10:31:52.323Z,1.71
2022-12-08T10:35:02.007Z,1.77
2022-12-08T10:38:06.355Z,1.81
2022-12-08T10:41:11.043Z,1.81
2022-12-08T10:44:12.647Z,1.84
2022-12-08T10:47:14.526Z,1.90
2022-12-08T10:50:28.526Z,1.94
2022-12-08T10:53:32.826Z,1.98
2022-12-08T10:56:34.558Z,1.98
2022-12-08T10:59:36.260Z,2.07
2022-12-08T11:02:51.670Z,2.11
2022-12-08T11:05:57.088Z,2.14
2022-12-08T11:09:01.772Z,2.18
2022-12-08T11:12:17.661Z,2.20
2022-12-08T11:15:19.495Z,2.27
2022-12-08T11:18:28.585Z,2.32
2022-12-08T11:21:36.774Z,2.37
2022-12-08T11:24:38.289Z,2.38
2022-12-08T11:27:47.178Z,2.43
2022-12-08T11:30:57.618Z,2.47
2022-12-08T11:33:59.433Z,2.51
2022-12-08T11:37:03.760Z,2.54
2022-12-08T11:40:14.445Z,2.54
2022-12-08T11:43:17.821Z,2.55
2022-12-08T11:46:24.933Z,2.58
2022-12-08T11:49:39.436Z,2.58
2022-12-08T11:52:47.448Z,2.58
2022-12-08T11:55:59.082Z,2.62
2022-12-08T11:59:15.725Z,2.61
2022-12-08T12:02:24.040Z,2.60
2022-12-08T12:06:09.300Z,2.64
2022-12-08T12:09:18.785Z,2.59
2022-12-08T12:12:39.290Z,2.67
2022-12-08T12:15:53.347Z,2.68
2022-12-08T12:19:01.424Z,2.74
2022-12-08T12:22:20.132Z,2.73
2022-12-08T12:25:24.724Z,2.78
2022-12-08T12:28:30.886Z,2.80
2022-12-08T12:31:38.356Z,2.78
2022-12-08T12:34:54.538Z,2.83
2022-12-08T12:38:00.042Z,2.83
2022-12-08T12:41:04.179Z,2.86
2022-12-08T12:44:13.209Z,2.92
2022-12-08T12:47:48.559Z,3.00
2022-12-08T12:50:55.061Z,3.05
2022-12-08T12:54:23.407Z,3.03
2022-12-08T12:57:40.256Z,3.06
2022-12-08T13:00:41.947Z,3.07
2022-12-08T13:03:47.277Z,3.09
2022-12-08T13:06:50.444Z,3.09
2022-12-08T13:10:15.339Z,3.13
2022-12-08T13:13:18.937Z,3.09
2022-12-08T13:16:24.281Z,3.07
2022-12-08T13:19:26.353Z,3.06
2022-12-08T13:22:54.207Z,3.09
2022-12-08T13:26:23.532Z,3.10
2022-12-08T13:29:26.278Z,3.10
2022-12-08T13:33:16.701Z,3.09
2022-12-08T13:36:25.807Z,3.07
2022-12-08T13:39:44.775Z,3.07
2022-12-08T13:43:05.848Z,3.08
2022-12-08T13:46:57.998Z,3.09
2022-12-08T13:57:02.716Z,3.07
2022-12-08T13:59:51.648Z,3.01
2022-12-08T14:02:58.054Z,2.99
2022-12-08T14:06:12.262Z,2.95
2022-12-08T14:09:19.274Z,2.94
2022-12-08T14:12:27.741Z,2.95
2022-12-08T14:15:37.224Z,2.95
2022-12-08T14:18:39.564Z,2.92
2022-12-08T14:21:41.121Z,2.95
2022-12-08T14:24:51.573Z,2.91
2022-12-08T14:27:59.974Z,2.94
2022-12-08T14:31:03.652Z,2.94
2022-12-08T14:34:05.236Z,2.91
2022-12-08T14:37:12.617Z,2.89
2022-12-08T14:40:34.172Z,2.86
2022-12-08T14:43:36.406Z,2.85
2022-12-08T14:46:38.357Z,2.83
2022-12-08T14:49:40.374Z,2.83
2022-12-08T14:52:45.376Z,2.83
2022-12-08T14:55:48.706Z,2.79
2022-12-08T14:59:03.289Z,2.78
2022-12-08T15:02:19.431Z,2.79
2022-12-08T15:05:21.911Z,2.75
2022-12-08T15:08:24.059Z,2.77
2022-12-08T15:11:34.560Z,2.74
2022-12-08T15:14:40.460Z,2.71
2022-12-08T15:17:43.457Z,2.71
2022-12-08T15:21:01.886Z,2.70
2022-12-08T15:24:03.649Z,2.70
2022-12-08T15:27:05.241Z,2.67
2022-12-08T15:30:14.306Z,2.63
2022-12-08T15:33:15.956Z,2.65
2022-12-08T15:36:17.500Z,2.62
2022-12-08T15:39:35.587Z,2.58
2022-12-08T15:42:37.137Z,2.55
2022-12-08T15:45:44.760Z,2.53
2022-12-08T15:48:57.891Z,2.49
2022-12-08T15:52:10.774Z,2.48
2022-12-08T15:55:18.818Z,2.46
2022-12-08T16:01:45.324Z,2.37
2022-12-08T16:05:33.421Z,2.33
2022-12-08T16:08:44.659Z,2.27
2022-12-08T16:12:06.489Z,2.25
2022-12-08T16:18:37.007Z,2.24
2022-12-08T16:22:17.729Z,2.23
2022-12-08T16:25:14.701Z,2.21
2022-12-08T16:28:52.009Z,2.17
2022-12-08T16:31:41.225Z,2.17
2022-12-08T16:34:43.911Z,2.15
2022-12-08T16:37:45.574Z,2.14
2022-12-08T16:41:06.342Z,2.11
2022-12-08T16:44:07.917Z,2.10
2022-12-08T16:47:10.254Z,2.09
2022-12-08T16:50:32.356Z,2.08
2022-12-08T16:53:33.857Z,2.08
2022-12-08T16:56:35.782Z,2.01
2022-12-08T16:59:38.123Z,1.99
2022-12-08T17:02:39.912Z,2.00
2022-12-08T17:05:43.258Z,1.99
2022-12-08T17:08:45.216Z,1.97
2022-12-08T17:11:46.776Z,1.93
2022-12-08T17:14:48.327Z,1.90
2022-12-08T17:17:50.436Z,1.90
2022-12-08T17:20:52.001Z,1.90
2022-12-08T17:23:53.768Z,1.89
2022-12-08T17:26:57.555Z,1.86
2022-12-08T17:29:59.311Z,1.82
2022-12-08T17:33:01.312Z,1.80
2022-12-08T17:36:03.062Z,1.75
2022-12-08T17:39:06.149Z,1.72
2022-12-08T17:42:08.099Z,1.71
2022-12-08T17:45:10.255Z,1.70
2022-12-08T17:48:12.037Z,1.68
2022-12-08T17:51:13.650Z,1.66
2022-12-08T17:54:16.482Z,1.64
2022-12-08T17:57:18.017Z,1.63
2022-12-08T18:00:20.271Z,1.63
2022-12-08T18:03:21.948Z,1.61
2022-12-08T18:06:28.169Z,1.60
2022-12-08T18:09:33.685Z,1.59
2022-12-08T18:12:35.416Z,1.59
2022-12-08T18:15:39.333Z,1.58
2022-12-08T18:18:41.509Z,1.56
2022-12-08T18:21:43.195Z,1.58
2022-12-08T18:24:44.897Z,1.56
2022-12-08T18:27:46.690Z,1.58
2022-12-08T18:30:48.245Z,1.57
2022-12-08T18:33:51.183Z,1.56
2022-12-08T18:36:53.599Z,1.50
2022-12-08T18:39:55.199Z,1.54
2022-12-08T18:42:56.850Z,1.55
2022-12-08T18:46:10.131Z,1.56
2022-12-08T18:49:12.915Z,1.60
2022-12-08T18:52:14.496Z,1.60
2022-12-08T18:55:16.073Z,1.60
2022-12-08T18:58:18.598Z,1.61
2022-12-08T19:01:20.622Z,1.56
2022-12-08T19:04:29.886Z,1.55
2022-12-08T19:07:32.277Z,1.55
2022-12-08T19:10:38.181Z,1.53
2022-12-08T19:13:39.697Z,1.50
2022-12-08T19:16:41.287Z,1.46
2022-12-08T19:19:43.183Z,1.41
2022-12-08T19:22:44.823Z,1.35
2022-12-08T19:25:46.436Z,1.32
2022-12-08T19:28:48.100Z,1.30
2022-12-08T19:31:49.842Z,1.25
2022-12-08T19:35:07.811Z,1.16
2022-12-08T19:38:17.998Z,1.22
2022-12-08T19:45:17.218Z,1.18
2022-12-08T19:48:18.780Z,1.16
2022-12-08T19:51:20.405Z,1.16
2022-12-08T19:54:21.994Z,1.18
2022-12-08T19:57:23.541Z,1.16
2022-12-08T20:00:25.536Z,1.16
2022-12-08T20:03:27.114Z,1.16
2022-12-08T20:06:28.780Z,1.17
2022-12-08T20:09:30.333Z,1.13
2022-12-08T20:12:31.933Z,1.19
2022-12-08T20:15:33.560Z,1.21
2022-12-08T20:18:39.871Z,1.18
2022-12-08T20:21:41.632Z,1.20
2022-12-08T20:24:43.250Z,1.18
2022-12-08T20:27:44.824Z,1.18
2022-12-08T20:30:46.956Z,1.18
2022-12-08T20:33:48.914Z,1.21
2022-12-08T20:36:50.481Z,1.22
2022-12-08T20:39:52.645Z,1.21
2022-12-08T20:42:54.424Z,1.20
2022-12-08T20:45:56.303Z,1.18
2022-12-08T20:49:01.225Z,1.16
2022-12-08T20:52:39.592Z,1.09
2022-12-08T20:55:49.681Z,1.16
2022-12-08T21:05:51.110Z,1.03
2022-12-08T21:08:53.573Z,0.99
2022-12-08T21:11:55.553Z,0.92
2022-12-08T21:14:57.150Z,0.90
2022-12-08T21:17:59.141Z,0.87
2022-12-08T21:21:04.608Z,0.81
2022-12-08T21:24:06.909Z,0.79
2022-12-08T21:27:09.311Z,0.73
2022-12-08T21:30:11.821Z,0.65
2022-12-08T21:33:13.933Z,0.67
2022-12-08T21:36:18.746Z,0.65
2022-12-08T21:39:20.443Z,0.64
2022-12-08T21:42:40.632Z,0.64
2022-12-08T21:45:42.343Z,0.65
2022-12-08T21:48:44.000Z,0.63
2022-12-08T21:51:45.948Z,0.67
2022-12-08T21:54:47.693Z,0.63
2022-12-08T21:57:49.295Z,0.62
2022-12-08T22:00:51.005Z,0.62
2022-12-08T22:03:52.797Z,0.63
2022-12-08T22:06:54.502Z,0.63
2022-12-08T22:09:56.248Z,0.63
2022-12-08T22:12:57.875Z,0.64
2022-12-08T22:16:02.144Z,0.65
2022-12-08T22:19:03.852Z,0.59
2022-12-08T22:22:05.942Z,0.65
2022-12-08T22:25:11.875Z,0.62
2022-12-08T22:28:13.742Z,0.55
2022-12-08T22:31:19.499Z,0.62
2022-12-08T22:34:21.262Z,0.60
2022-12-08T22:37:22.893Z,0.59
2022-12-08T22:40:24.646Z,0.58
2022-12-08T22:43:26.532Z,0.58
2022-12-08T22:46:28.299Z,0.49
2022-12-08T22:49:31.677Z,0.53
2022-12-08T22:52:33.580Z,0.52
2022-12-08T22:55:35.339Z,0.50
2022-12-08T22:58:38.712Z,0.50
2022-12-08T23:01:40.294Z,0.52
2022-12-08T23:04:42.006Z,0.52
2022-12-08T23:07:44.009Z,0.52
2022-12-08T23:10:47.145Z,0.51
2022-12-08T23:13:49.032Z,0.53
2022-12-08T23:16:50.690Z,0.52
2022-12-08T23:19:52.337Z,0.50
2022-12-08T23:22:53.946Z,0.51
2022-12-08T23:25:55.627Z,0.50
2022-12-08T23:28:57.805Z,0.49
2022-12-08T23:32:00.030Z,0.51
2022-12-08T23:35:01.743Z,0.52
2022-12-08T23:38:03.768Z,0.50
2022-12-08T23:41:07.837Z,0.50
2022-12-08T23:44:11.920Z,0.49
2022-12-08T23:47:13.613Z,0.44
2022-12-08T23:50:15.427Z,0.45
2022-12-08T23:53:17.190Z,0.41
2022-12-08T23:56:19.894Z,0.39
2022-12-08T23:59:23.173Z,0.37
